Terminal Aerodrome Forecast
Issued by NWS St Louis, MO

Home | Current Version | Previous Version | Text Only | Print | Product List | Glossary On
Versions: 1 2 3 4 5 6 7 8 9 10 11 12 13 14 15 16 17 18 19 20 21 22 23 24 25 26 27 28 29 30 31
090
FTUS43 KLSX 222342
TAFCOU
TAF
KCOU 222342Z 2300/2324 18010KT P6SM SCT250
     FM230700 23005KT 5SM BR SCT250
     FM230900 32005KT 4SM BR SCT040 BKN120
     FM231100 05005KT 3SM BR BKN030
     FM231600 08008KT P6SM BKN040
     FM232100 11011G18KT P6SM BKN040=

USA.gov is the U.S. government's official web portal to all federal, state and local government web resources and services.